Time;durP1;ratioP1;P1;durP2;ratioP2;P2;SDS_P1;SDS_P2;PMS_P1;PMS_P2;Temp;Humidity;BMP_temperature;BMP_pressure;BME280_temperature;BME280_humidity;BME280_pressure;Samples;Min_cycle;Max_cycle;Signal;HPM_P1;HPM_P2
2023/11/24 00:02:01;;;;;;;2.83;1.50;;;5.30;97.00;;;;;;4994101;28;20675;-75
2023/11/24 00:04:26;;;;;;;3.95;1.73;;;5.30;96.80;;;;;;4994249;28;20479;-75
2023/11/24 00:06:53;;;;;;;3.92;1.75;;;5.20;97.10;;;;;;4994582;28;20124;-75
2023/11/24 00:09:18;;;;;;;6.10;1.55;;;5.30;97.40;;;;;;4992355;28;20702;-75
2023/11/24 00:11:46;;;;;;;7.38;1.95;;;5.30;97.40;;;;;;4993521;28;20045;-75
2023/11/24 00:14:12;;;;;;;3.80;1.80;;;5.30;97.20;;;;;;4994362;28;20034;-75
2023/11/24 00:16:38;;;;;;;4.10;2.17;;;5.30;97.30;;;;;;4994882;28;20038;-74
2023/11/24 00:19:06;;;;;;;5.60;2.50;;;5.20;97.40;;;;;;4998579;28;20132;-75
2023/11/24 00:21:32;;;;;;;6.55;2.22;;;5.10;97.20;;;;;;4997516;28;20045;-75
2023/11/24 00:24:04;;;;;;;9.55;1.90;;;5.20;97.20;;;;;;4996886;28;20506;-75
2023/11/24 00:26:30;;;;;;;4.43;1.63;;;5.20;97.40;;;;;;4996909;28;20779;-75
2023/11/24 00:28:56;;;;;;;5.40;2.15;;;5.30;97.20;;;;;;4997800;28;20038;-75
2023/11/24 00:31:24;;;;;;;5.80;1.98;;;5.20;97.30;;;;;;4995358;28;20045;-75
2023/11/24 00:33:51;;;;;;;6.15;2.65;;;5.20;98.10;;;;;;4997679;28;20037;-75
2023/11/24 00:36:16;;;;;;;4.28;1.80;;;5.00;98.10;;;;;;4998137;28;20037;-75
2023/11/24 00:38:42;;;;;;;5.57;2.45;;;5.00;98.20;;;;;;4997758;28;20034;-75
2023/11/24 00:41:09;;;;;;;5.28;2.15;;;4.90;97.90;;;;;;4996895;28;20037;-75
2023/11/24 00:43:38;;;;;;;3.88;1.80;;;4.80;98.80;;;;;;4996797;28;20069;-75
2023/11/24 00:46:06;;;;;;;3.47;1.92;;;4.90;98.00;;;;;;4995922;28;20038;-75
2023/11/24 00:48:32;;;;;;;4.93;2.72;;;5.10;97.90;;;;;;4996186;28;20038;-75
2023/11/24 00:50:58;;;;;;;5.72;2.92;;;5.10;98.40;;;;;;4997650;28;20033;-74
2023/11/24 00:53:24;;;;;;;6.00;2.92;;;5.00;98.60;;;;;;4996837;28;20034;-75
2023/11/24 00:55:50;;;;;;;4.72;2.05;;;5.10;98.00;;;;;;4996160;28;20040;-75
2023/11/24 00:58:16;;;;;;;4.68;2.10;;;5.10;98.10;;;;;;4996860;28;20495;-75
2023/11/24 01:00:42;;;;;;;5.57;2.42;;;5.10;98.60;;;;;;4995605;28;20096;-75
2023/11/24 01:03:08;;;;;;;5.70;2.95;;;5.10;98.60;;;;;;4997324;28;20100;-75
2023/11/24 01:05:34;;;;;;;5.25;2.40;;;5.20;99.70;;;;;;4995987;28;20135;-75
2023/11/24 01:08:00;;;;;;;5.88;2.30;;;5.10;99.50;;;;;;4995626;28;20034;-75
2023/11/24 01:10:27;;;;;;;5.70;2.75;;;5.00;99.10;;;;;;4996352;28;21686;-75
2023/11/24 01:12:53;;;;;;;6.75;2.88;;;4.90;99.40;;;;;;4996301;28;20574;-75
2023/11/24 01:15:20;;;;;;;5.10;2.47;;;5.00;99.90;;;;;;4996370;28;20046;-75
2023/11/24 01:17:46;;;;;;;4.50;1.95;;;4.90;99.70;;;;;;4996905;28;20480;-75
2023/11/24 01:20:11;;;;;;;4.40;2.13;;;4.90;99.90;;;;;;4996418;28;20037;-75
2023/11/24 01:22:38;;;;;;;5.95;2.38;;;4.90;99.90;;;;;;4994923;28;20042;-75
2023/11/24 01:25:04;;;;;;;3.38;1.77;;;5.00;99.90;;;;;;4995210;28;20373;-75
2023/11/24 01:27:30;;;;;;;6.70;2.80;;;4.90;99.90;;;;;;4995831;28;20045;-75
2023/11/24 01:29:56;;;;;;;5.60;2.33;;;5.00;99.70;;;;;;4995294;28;20034;-75
2023/11/24 01:32:22;;;;;;;5.43;2.15;;;4.90;99.50;;;;;;4996323;28;20447;-75
2023/11/24 01:34:48;;;;;;;5.20;2.50;;;5.00;99.30;;;;;;4994973;28;20427;-75
2023/11/24 01:37:14;;;;;;;5.80;2.30;;;5.10;99.50;;;;;;4995513;28;20072;-75
2023/11/24 01:39:39;;;;;;;8.10;2.65;;;5.20;99.90;;;;;;4996504;28;20049;-75
2023/11/24 01:42:05;;;;;;;6.43;3.25;;;5.00;99.90;;;;;;4994643;28;21511;-75
2023/11/24 01:44:31;;;;;;;6.45;3.22;;;5.00;99.90;;;;;;4993219;28;20448;-75
2023/11/24 01:46:57;;;;;;;7.13;4.35;;;5.00;99.20;;;;;;4996246;28;20092;-75
2023/11/24 01:49:24;;;;;;;7.90;2.78;;;5.00;99.30;;;;;;4995358;28;20033;-75
2023/11/24 01:51:51;;;;;;;7.43;2.67;;;4.90;99.30;;;;;;4993018;28;20034;-75
2023/11/24 01:54:19;;;;;;;5.20;2.42;;;5.00;99.80;;;;;;4995984;28;20038;-75
2023/11/24 01:56:45;;;;;;;5.60;2.88;;;4.90;99.90;;;;;;4995467;28;20443;-75
2023/11/24 01:59:13;;;;;;;5.88;2.30;;;4.80;99.70;;;;;;4995111;28;20403;-74
2023/11/24 02:01:40;;;;;;;8.23;2.08;;;4.80;99.90;;;;;;4996445;28;20466;-75
2023/11/24 02:04:06;;;;;;;5.18;2.28;;;4.70;99.90;;;;;;4994686;28;20415;-75
2023/11/24 02:06:32;;;;;;;5.20;2.78;;;4.60;99.90;;;;;;4995133;28;20034;-75
2023/11/24 02:08:58;;;;;;;5.00;2.38;;;4.60;99.90;;;;;;4995819;28;20038;-75
2023/11/24 02:11:23;;;;;;;5.88;2.50;;;4.70;99.90;;;;;;4994174;28;20048;-75
2023/11/24 02:13:50;;;;;;;4.88;2.40;;;4.60;99.90;;;;;;4994700;28;20029;-75
2023/11/24 02:16:16;;;;;;;5.28;2.92;;;4.70;99.90;;;;;;4996734;28;20046;-75
2023/11/24 02:18:42;;;;;;;6.85;2.65;;;4.50;99.90;;;;;;4995256;28;20515;-75
2023/11/24 02:21:08;;;;;;;4.40;2.22;;;4.50;99.90;;;;;;4993871;28;20033;-75
2023/11/24 02:23:34;;;;;;;5.25;2.42;;;4.30;99.90;;;;;;4995438;28;20103;-75
2023/11/24 02:26:01;;;;;;;4.93;2.38;;;4.30;99.90;;;;;;4994170;28;20038;-75
2023/11/24 02:28:26;;;;;;;4.85;2.33;;;4.50;99.90;;;;;;4994580;28;20026;-75
2023/11/24 02:30:53;;;;;;;5.60;3.03;;;4.50;99.90;;;;;;4996438;28;20047;-74
2023/11/24 02:33:19;;;;;;;5.32;2.72;;;4.30;99.90;;;;;;4994795;28;20076;-75
2023/11/24 02:35:46;;;;;;;7.15;3.40;;;4.00;99.90;;;;;;4993818;28;20034;-75
2023/11/24 02:38:12;;;;;;;5.57;3.17;;;3.90;99.90;;;;;;4995786;28;20034;-74
2023/11/24 02:40:38;;;;;;;4.40;2.28;;;4.00;99.90;;;;;;4995151;28;20068;-75
2023/11/24 02:43:06;;;;;;;5.55;3.03;;;4.10;99.90;;;;;;4993925;28;20041;-75
2023/11/24 02:45:32;;;;;;;6.22;2.70;;;4.00;99.90;;;;;;4994969;28;20038;-75
2023/11/24 02:47:57;;;;;;;6.22;2.63;;;4.20;99.90;;;;;;4996012;28;20038;-75
2023/11/24 02:50:23;;;;;;;5.82;2.47;;;4.10;99.90;;;;;;4994292;28;20113;-75
2023/11/24 02:52:49;;;;;;;6.22;2.70;;;4.20;99.90;;;;;;4994081;28;20492;-75
2023/11/24 02:55:15;;;;;;;5.60;2.30;;;4.10;99.90;;;;;;4995503;28;20029;-75
2023/11/24 02:57:41;;;;;;;7.03;3.30;;;4.00;99.90;;;;;;4994075;28;20088;-75
2023/11/24 03:00:08;;;;;;;4.57;2.33;;;4.10;99.90;;;;;;4994637;28;20136;-75
2023/11/24 03:02:33;;;;;;;5.50;2.88;;;4.10;99.90;;;;;;4995358;28;20091;-74
2023/11/24 03:04:59;;;;;;;5.40;2.58;;;3.80;99.90;;;;;;4994444;28;20091;-75
2023/11/24 03:07:24;;;;;;;4.97;2.45;;;3.90;99.90;;;;;;4993874;28;20046;-75
2023/11/24 03:09:50;;;;;;;3.83;2.00;;;4.00;99.90;;;;;;4993126;28;20455;-75
2023/11/24 03:12:16;;;;;;;3.53;2.08;;;4.10;99.90;;;;;;4994314;28;20495;-75
2023/11/24 03:14:42;;;;;;;4.75;1.95;;;4.20;99.90;;;;;;4994628;28;20041;-75
2023/11/24 03:17:09;;;;;;;6.20;2.90;;;3.90;99.90;;;;;;4995206;28;20040;-75
2023/11/24 03:19:34;;;;;;;5.82;2.85;;;3.70;99.90;;;;;;4995087;28;20042;-75
2023/11/24 03:22:00;;;;;;;5.50;2.38;;;3.60;99.90;;;;;;4994584;28;20068;-75
2023/11/24 03:24:26;;;;;;;4.22;2.58;;;3.70;99.90;;;;;;4994814;28;20464;-75
2023/11/24 03:26:52;;;;;;;3.90;2.20;;;3.70;99.90;;;;;;4994139;28;20132;-74
2023/11/24 03:29:17;;;;;;;5.20;2.60;;;3.80;99.90;;;;;;4994003;28;20625;-75
2023/11/24 03:31:43;;;;;;;10.40;3.20;;;3.80;99.90;;;;;;4994577;28;20030;-75
2023/11/24 03:34:10;;;;;;;4.68;2.47;;;3.70;99.90;;;;;;4995228;28;20030;-75
2023/11/24 03:36:36;;;;;;;4.88;1.98;;;3.40;99.90;;;;;;4999089;28;20026;-74
2023/11/24 03:39:02;;;;;;;6.53;1.90;;;3.50;99.90;;;;;;4997136;28;20034;-74
2023/11/24 03:41:28;;;;;;;5.55;1.75;;;3.60;99.90;;;;;;4996718;28;20041;-75
2023/11/24 03:43:54;;;;;;;4.03;2.08;;;3.70;99.90;;;;;;4998841;28;20041;-74
2023/11/24 03:46:20;;;;;;;4.75;1.88;;;3.60;99.90;;;;;;4997895;28;20045;-75
2023/11/24 03:48:46;;;;;;;4.53;2.00;;;3.60;99.90;;;;;;4998026;28;20128;-75
2023/11/24 03:51:18;;;;;;;5.95;2.47;;;3.80;99.90;;;;;;4997926;28;20032;-75
2023/11/24 03:53:43;;;;;;;7.63;2.28;;;3.90;99.90;;;;;;4998874;28;20022;-75
2023/11/24 03:56:09;;;;;;;6.53;2.38;;;3.90;99.90;;;;;;4997676;28;20612;-75
2023/11/24 03:58:35;;;;;;;6.05;2.45;;;3.90;99.90;;;;;;4997547;28;20026;-75
2023/11/24 04:01:01;;;;;;;5.80;2.60;;;4.00;99.90;;;;;;4998209;28;20041;-75
2023/11/24 04:03:27;;;;;;;5.60;2.85;;;3.80;99.90;;;;;;4995503;28;20054;-76
2023/11/24 04:05:52;;;;;;;6.60;2.47;;;3.20;99.90;;;;;;4993614;28;20885;-75
2023/11/24 04:08:18;;;;;;;4.22;2.13;;;3.20;99.90;;;;;;4993362;28;20169;-75
2023/11/24 04:10:44;;;;;;;6.30;2.97;;;3.40;99.90;;;;;;4992962;28;20030;-75
2023/11/24 04:13:09;;;;;;;9.55;3.00;;;3.10;99.90;;;;;;4993030;28;20041;-76
2023/11/24 04:15:35;;;;;;;4.95;2.47;;;2.90;99.90;;;;;;4993982;28;20195;-75
2023/11/24 04:18:01;;;;;;;4.13;2.22;;;3.10;99.90;;;;;;4990775;28;20030;-74
2023/11/24 04:20:26;;;;;;;3.65;2.35;;;3.20;99.90;;;;;;4990131;28;20029;-77
2023/11/24 04:22:52;;;;;;;5.07;2.20;;;3.30;99.90;;;;;;4992500;28;20103;-75
2023/11/24 04:25:18;;;;;;;4.53;2.10;;;3.60;99.90;;;;;;4990692;28;20484;-75
2023/11/24 04:27:44;;;;;;;5.57;2.20;;;3.50;99.90;;;;;;4991790;28;20080;-77
2023/11/24 04:30:10;;;;;;;5.07;2.10;;;3.80;99.90;;;;;;4994969;28;20562;-75
2023/11/24 04:32:36;;;;;;;4.45;2.20;;;3.70;99.90;;;;;;4993237;28;20068;-76
2023/11/24 04:35:02;;;;;;;3.63;1.60;;;3.70;99.90;;;;;;4992969;28;20484;-75
2023/11/24 04:37:27;;;;;;;4.60;1.83;;;3.50;99.90;;;;;;4994176;28;20045;-76
2023/11/24 04:39:55;;;;;;;4.40;2.20;;;3.70;99.90;;;;;;4993867;28;20415;-75
2023/11/24 04:42:22;;;;;;;4.72;1.90;;;3.60;99.90;;;;;;4992883;28;20101;-76
2023/11/24 04:44:47;;;;;;;4.75;2.13;;;3.50;99.90;;;;;;4993876;28;20041;-76
2023/11/24 04:47:13;;;;;;;4.97;1.88;;;3.50;99.90;;;;;;4993873;28;20546;-76
2023/11/24 04:49:39;;;;;;;4.35;2.47;;;3.30;99.90;;;;;;4993867;28;20554;-76
2023/11/24 04:52:05;;;;;;;5.03;1.98;;;3.20;99.90;;;;;;4993237;28;20061;-75
2023/11/24 04:54:30;;;;;;;5.68;2.28;;;3.30;99.90;;;;;;4992855;28;20048;-76
2023/11/24 04:56:56;;;;;;;6.97;2.50;;;3.10;99.90;;;;;;4991543;28;20460;-76
2023/11/24 04:59:23;;;;;;;5.00;1.90;;;2.90;99.90;;;;;;4991410;28;20092;-76
2023/11/24 05:01:49;;;;;;;5.75;2.20;;;2.90;99.90;;;;;;4990456;28;20207;-76
2023/11/24 05:04:15;;;;;;;3.88;1.70;;;3.40;99.90;;;;;;4990074;28;20050;-76
2023/11/24 05:06:41;;;;;;;4.18;2.03;;;3.60;99.90;;;;;;4991056;28;20111;-76
2023/11/24 05:09:07;;;;;;;4.43;2.08;;;3.70;99.90;;;;;;4990188;28;20627;-74
2023/11/24 05:11:33;;;;;;;4.15;1.92;;;3.50;99.90;;;;;;4990190;28;20554;-75
2023/11/24 05:13:59;;;;;;;6.95;2.13;;;3.50;99.90;;;;;;4991114;28;20109;-74
2023/11/24 05:16:26;;;;;;;6.68;2.10;;;3.40;99.90;;;;;;4989990;28;20065;-75
2023/11/24 05:18:52;;;;;;;3.67;1.90;;;3.40;99.90;;;;;;4989532;28;20034;-74
2023/11/24 05:21:18;;;;;;;4.43;1.98;;;3.40;99.90;;;;;;4990953;28;20529;-75
2023/11/24 05:23:44;;;;;;;3.97;1.98;;;3.40;99.90;;;;;;4991134;28;20034;-77
2023/11/24 05:26:10;;;;;;;4.85;1.95;;;3.40;99.90;;;;;;4989701;28;20038;-74
2023/11/24 05:28:36;;;;;;;4.55;2.03;;;3.50;99.90;;;;;;4990301;28;20574;-75
2023/11/24 05:31:04;;;;;;;6.68;2.58;;;3.60;99.90;;;;;;4990156;28;20034;-75
2023/11/24 05:33:30;;;;;;;5.43;2.53;;;3.70;99.90;;;;;;4989049;28;20134;-75
2023/11/24 05:35:57;;;;;;;4.13;2.15;;;3.90;99.90;;;;;;4990833;28;20033;-76
2023/11/24 05:38:23;;;;;;;3.78;1.65;;;3.80;99.90;;;;;;4989609;28;20168;-74
2023/11/24 05:40:49;;;;;;;4.72;1.95;;;3.60;99.90;;;;;;4988888;28;20033;-75
2023/11/24 05:43:16;;;;;;;4.00;1.95;;;3.60;99.90;;;;;;4990130;28;20076;-74
2023/11/24 05:45:41;;;;;;;5.00;2.08;;;3.50;99.90;;;;;;4989598;28;20091;-76
2023/11/24 05:48:07;;;;;;;5.90;2.17;;;3.40;99.90;;;;;;4989594;28;20037;-74
2023/11/24 05:50:33;;;;;;;5.22;2.10;;;3.50;99.90;;;;;;4990335;28;20038;-75
2023/11/24 05:52:59;;;;;;;6.05;2.20;;;3.50;99.90;;;;;;4989076;28;20042;-74
2023/11/24 05:55:24;;;;;;;4.65;2.60;;;3.50;99.90;;;;;;4988957;28;20044;-75
2023/11/24 05:57:50;;;;;;;6.57;2.78;;;3.50;99.90;;;;;;4989803;28;20243;-75
2023/11/24 06:00:18;;;;;;;7.60;3.00;;;3.50;99.90;;;;;;4989266;28;20030;-75
2023/11/24 06:02:44;;;;;;;35.65;18.42;;;3.40;99.90;;;;;;4988894;28;21309;-74
2023/11/24 06:05:12;;;;;;;24.20;14.70;;;3.40;99.90;;;;;;4990878;28;20068;-75
2023/11/24 06:07:39;;;;;;;22.92;15.02;;;3.60;99.90;;;;;;4989318;28;20603;-74
2023/11/24 06:10:06;;;;;;;14.18;7.75;;;3.60;99.90;;;;;;4988688;28;20042;-74
2023/11/24 06:12:32;;;;;;;12.43;6.47;;;3.00;99.90;;;;;;4989250;28;20495;-75
2023/11/24 06:14:58;;;;;;;9.68;5.07;;;3.00;99.90;;;;;;4988697;28;20108;-74
2023/11/24 06:17:23;;;;;;;8.07;4.25;;;2.80;99.90;;;;;;4987399;28;20034;-75
2023/11/24 06:19:49;;;;;;;7.25;3.80;;;2.80;99.90;;;;;;4988263;28;20045;-76
2023/11/24 06:22:15;;;;;;;8.35;3.20;;;2.70;99.90;;;;;;4989504;28;20046;-75
2023/11/24 06:24:41;;;;;;;7.20;2.92;;;2.60;99.90;;;;;;4984653;28;20037;-74
2023/11/24 06:27:07;;;;;;;5.38;2.60;;;2.80;99.90;;;;;;4989167;28;20128;-77
2023/11/24 06:29:33;;;;;;;5.75;3.13;;;3.00;99.90;;;;;;4990461;28;20091;-75
2023/11/24 06:31:58;;;;;;;6.85;3.05;;;3.10;99.90;;;;;;4988380;28;20077;-75
2023/11/24 06:34:24;;;;;;;5.85;2.35;;;3.30;99.90;;;;;;4988589;28;20030;-74
2023/11/24 06:36:50;;;;;;;5.65;2.30;;;3.40;99.90;;;;;;4989529;28;20034;-75
2023/11/24 06:39:19;;;;;;;5.93;2.88;;;3.30;99.90;;;;;;4991608;28;20022;-75
2023/11/24 06:41:46;;;;;;;6.32;2.95;;;3.30;99.90;;;;;;4989127;28;20045;-77
2023/11/24 06:44:12;;;;;;;10.13;2.80;;;3.30;99.90;;;;;;4995823;28;20063;-76
2023/11/24 06:46:37;;;;;;;5.82;3.03;;;3.30;99.90;;;;;;4988498;28;20040;-77
2023/11/24 06:49:05;;;;;;;7.65;2.70;;;3.10;99.90;;;;;;4989748;28;20088;-75
2023/11/24 06:51:32;;;;;;;5.32;2.53;;;3.00;99.90;;;;;;4988613;28;20076;-76
2023/11/24 06:53:58;;;;;;;7.95;2.50;;;3.00;99.90;;;;;;4990250;28;20091;-75
2023/11/24 06:56:25;;;;;;;5.88;2.72;;;3.20;99.90;;;;;;4989507;28;20674;-83
2023/11/24 06:58:54;;;;;;;5.78;3.08;;;3.30;99.90;;;;;;4988501;28;20063;-76
2023/11/24 07:01:31;;;;;;;9.02;3.10;;;3.30;99.90;;;;;;4988453;28;20033;-77
2023/11/24 07:03:58;;;;;;;4.70;2.55;;;3.20;99.90;;;;;;4990135;28;20060;-75
2023/11/24 07:06:24;;;;;;;6.05;2.63;;;3.10;99.90;;;;;;4989367;28;20133;-75
2023/11/24 07:08:52;;;;;;;5.32;2.72;;;3.20;99.90;;;;;;4989984;28;20030;-76
2023/11/24 07:11:22;;;;;;;5.25;2.45;;;3.20;99.90;;;;;;4993283;28;20030;-75
2023/11/24 07:13:47;;;;;;;4.57;2.67;;;3.30;99.90;;;;;;4993040;28;20682;-74
2023/11/24 07:16:13;;;;;;;6.85;3.33;;;3.20;99.90;;;;;;4993345;28;20030;-75
2023/11/24 07:18:39;;;;;;;5.93;2.65;;;2.90;99.90;;;;;;4993447;28;20037;-76
2023/11/24 07:21:05;;;;;;;6.28;2.90;;;2.90;99.90;;;;;;4992111;28;20530;-77
2023/11/24 07:23:32;;;;;;;5.40;2.63;;;3.00;99.90;;;;;;4992142;28;20046;-76
2023/11/24 07:25:58;;;;;;;5.90;2.47;;;3.00;99.90;;;;;;4994057;28;20044;-75
2023/11/24 07:28:24;;;;;;;6.78;3.60;;;2.90;99.90;;;;;;4992615;28;20033;-75
2023/11/24 07:30:50;;;;;;;6.50;2.95;;;2.90;99.90;;;;;;4995172;28;20037;-75
2023/11/24 07:33:16;;;;;;;6.13;2.50;;;2.80;99.90;;;;;;4996745;28;20377;-74
2023/11/24 07:35:43;;;;;;;5.57;3.00;;;2.90;99.90;;;;;;4992785;28;20045;-75
2023/11/24 07:38:09;;;;;;;6.25;3.80;;;3.00;99.90;;;;;;4991573;28;20045;-77
2023/11/24 07:40:35;;;;;;;8.82;4.35;;;3.10;99.90;;;;;;4992498;28;20050;-76
2023/11/24 07:43:01;;;;;;;7.07;4.18;;;3.10;99.90;;;;;;4994090;28;20104;-79
2023/11/24 07:45:26;;;;;;;8.05;4.10;;;2.80;99.90;;;;;;4990417;28;20042;-75
2023/11/24 07:47:52;;;;;;;7.85;3.67;;;2.90;99.90;;;;;;4992642;28;20083;-75
2023/11/24 07:50:19;;;;;;;14.98;8.88;;;3.10;99.90;;;;;;4991426;28;20045;-78
2023/11/24 07:52:44;;;;;;;6.20;3.40;;;3.10;99.90;;;;;;4992198;28;20088;-76
2023/11/24 07:55:13;;;;;;;7.05;3.58;;;3.00;99.90;;;;;;4993595;28;20193;-74
2023/11/24 07:57:42;;;;;;;6.50;3.17;;;3.10;99.90;;;;;;4991790;28;20037;-75
2023/11/24 08:00:12;;;;;;;5.75;3.08;;;2.90;99.90;;;;;;4992376;28;20046;-76
2023/11/24 08:02:39;;;;;;;8.05;2.80;;;2.70;99.90;;;;;;4993545;28;20052;-75
2023/11/24 08:05:05;;;;;;;6.82;3.33;;;2.80;99.90;;;;;;4991073;28;20307;-78
2023/11/24 08:07:32;;;;;;;6.00;3.30;;;3.00;99.90;;;;;;4991273;28;20034;-76
2023/11/24 08:09:57;;;;;;;6.80;3.00;;;3.00;99.90;;;;;;4991874;28;20038;-76
2023/11/24 08:12:23;;;;;;;5.72;2.83;;;3.00;99.90;;;;;;4991207;28;20585;-75
2023/11/24 08:14:49;;;;;;;5.43;3.15;;;3.10;99.90;;;;;;4992432;28;20045;-76
2023/11/24 08:17:14;;;;;;;6.55;3.13;;;3.20;99.90;;;;;;4991127;28;23515;-76
2023/11/24 08:19:40;;;;;;;5.38;3.10;;;3.10;99.90;;;;;;4991480;28;20061;-74
2023/11/24 08:22:06;;;;;;;5.05;2.92;;;3.00;99.90;;;;;;4990638;28;20046;-76
2023/11/24 08:24:31;;;;;;;6.20;3.08;;;3.10;99.90;;;;;;4990754;28;20041;-76
2023/11/24 08:26:57;;;;;;;5.43;2.47;;;3.20;99.90;;;;;;4992770;28;20107;-76
2023/11/24 08:29:24;;;;;;;7.55;4.07;;;3.10;99.90;;;;;;4990910;28;20036;-76
2023/11/24 08:31:50;;;;;;;6.28;4.00;;;3.00;99.90;;;;;;4990685;28;20096;-75
2023/11/24 08:34:16;;;;;;;8.88;3.97;;;3.20;99.90;;;;;;4992963;28;20054;-74
2023/11/24 08:36:42;;;;;;;6.57;3.63;;;3.20;99.90;;;;;;4993440;28;20109;-75
2023/11/24 08:39:13;;;;;;;6.32;3.05;;;3.30;99.90;;;;;;4993402;28;20126;-75
2023/11/24 08:41:42;;;;;;;5.50;2.75;;;3.30;99.90;;;;;;4994154;28;20026;-76
2023/11/24 08:44:08;;;;;;;5.47;2.47;;;3.20;99.90;;;;;;4992207;28;20040;-75
2023/11/24 08:46:34;;;;;;;14.25;7.60;;;3.20;99.90;;;;;;4992701;28;20636;-75
2023/11/24 08:49:00;;;;;;;7.70;4.45;;;3.30;99.90;;;;;;4994732;28;20044;-75
2023/11/24 08:51:26;;;;;;;7.88;3.22;;;3.30;99.90;;;;;;4992706;28;20103;-75
2023/11/24 08:53:51;;;;;;;4.53;2.25;;;3.30;99.90;;;;;;4992481;28;20038;-75
2023/11/24 08:56:17;;;;;;;5.82;3.05;;;3.40;99.90;;;;;;4994283;28;20669;-75
2023/11/24 08:58:43;;;;;;;6.82;2.72;;;3.50;99.90;;;;;;4993152;28;20346;-74
2023/11/24 09:01:12;;;;;;;4.85;2.45;;;3.70;99.90;;;;;;4992046;28;20445;-76
2023/11/24 09:03:38;;;;;;;6.00;2.63;;;3.70;99.90;;;;;;4953916;28;1146247;-74
2023/11/24 09:06:04;;;;;;;5.28;2.80;;;3.70;99.90;;;;;;4994765;28;20044;-74
2023/11/24 09:08:29;;;;;;;5.15;2.47;;;3.80;99.90;;;;;;4993427;28;20978;-77
2023/11/24 09:10:55;;;;;;;8.50;2.78;;;3.90;99.90;;;;;;4994291;28;20468;-76
2023/11/24 09:13:22;;;;;;;7.15;2.65;;;3.90;99.90;;;;;;4994947;28;20070;-76
2023/11/24 09:15:49;;;;;;;4.18;2.42;;;3.80;99.90;;;;;;4993409;28;20080;-76
2023/11/24 09:18:15;;;;;;;6.30;2.72;;;3.80;99.90;;;;;;4994219;28;20136;-75
2023/11/24 09:20:41;;;;;;;5.50;2.65;;;3.80;99.90;;;;;;4994375;28;20121;-75
2023/11/24 09:23:07;;;;;;;5.35;2.70;;;3.80;99.90;;;;;;4993528;28;20137;-75
2023/11/24 09:25:32;;;;;;;4.88;2.10;;;3.60;99.90;;;;;;4993667;28;20500;-76
2023/11/24 09:28:01;;;;;;;9.02;2.67;;;3.60;99.90;;;;;;4993904;28;20041;-75
2023/11/24 09:30:27;;;;;;;7.07;2.95;;;3.70;99.90;;;;;;4992790;28;20037;-76
2023/11/24 09:32:56;;;;;;;10.35;3.05;;;3.70;99.90;;;;;;4993405;28;20042;-75
2023/11/24 09:35:25;;;;;;;6.57;3.35;;;3.80;99.90;;;;;;4994495;28;20089;-76
2023/11/24 09:37:54;;;;;;;5.75;3.10;;;3.80;99.90;;;;;;4993271;28;20029;-76
2023/11/24 09:40:22;;;;;;;6.75;3.65;;;3.80;99.90;;;;;;4993083;28;20066;-75
2023/11/24 09:42:49;;;;;;;5.28;2.58;;;3.90;99.90;;;;;;4993630;28;20042;-77
2023/11/24 09:45:26;;;;;;;7.40;2.35;;;3.70;99.90;;;;;;4993647;28;20064;-76
2023/11/24 09:47:52;;;;;;;7.22;3.05;;;3.70;99.90;;;;;;4992922;28;20092;-75
2023/11/24 09:50:25;;;;;;;5.30;2.47;;;3.80;99.90;;;;;;4991940;28;20034;-75
2023/11/24 09:52:55;;;;;;;5.57;2.20;;;3.90;99.90;;;;;;4992526;28;20038;-74
2023/11/24 09:55:25;;;;;;;5.07;2.30;;;3.80;99.90;;;;;;4993549;28;20037;-74
2023/11/24 09:57:51;;;;;;;4.72;2.30;;;3.80;99.90;;;;;;4993197;28;20145;-75
2023/11/24 10:00:19;;;;;;;4.15;1.90;;;3.90;99.90;;;;;;4993984;28;20042;-76
2023/11/24 10:02:47;;;;;;;4.75;2.20;;;4.00;99.90;;;;;;4992602;28;20042;-73
2023/11/24 10:05:19;;;;;;;5.35;2.25;;;3.90;99.90;;;;;;4991409;28;20092;-76
2023/11/24 10:07:50;;;;;;;6.30;2.70;;;4.00;99.90;;;;;;4990472;28;20036;-74
2023/11/24 10:10:22;;;;;;;6.13;2.55;;;4.00;99.90;;;;;;4990060;28;20107;-75
2023/11/24 10:12:50;;;;;;;5.15;2.10;;;4.00;99.90;;;;;;4990295;28;20033;-75
2023/11/24 10:15:16;;;;;;;4.95;2.42;;;4.00;99.90;;;;;;4991128;28;20827;-77
2023/11/24 10:17:45;;;;;;;5.10;2.42;;;4.10;99.90;;;;;;4989647;28;20034;-74
2023/11/24 10:20:11;;;;;;;4.68;2.50;;;4.10;99.90;;;;;;4990123;28;20034;-76
2023/11/24 10:22:38;;;;;;;6.00;3.13;;;4.30;99.90;;;;;;4991364;28;20496;-75
2023/11/24 10:25:10;;;;;;;5.90;2.72;;;4.30;99.90;;;;;;4992363;28;20040;-74
2023/11/24 10:27:38;;;;;;;6.60;2.75;;;4.50;99.90;;;;;;4992208;28;20192;-74
2023/11/24 10:30:05;;;;;;;4.90;2.65;;;4.70;99.90;;;;;;4992563;28;20038;-75
2023/11/24 10:32:32;;;;;;;4.85;2.70;;;4.90;99.90;;;;;;4993041;28;20137;-74
2023/11/24 10:35:00;;;;;;;9.85;2.38;;;5.20;99.90;;;;;;4992257;28;20542;-75
2023/11/24 10:37:26;;;;;;;14.55;2.78;;;5.30;99.90;;;;;;4991894;28;20061;-75
2023/11/24 10:39:53;;;;;;;5.38;3.10;;;5.40;99.90;;;;;;4992193;28;20045;-74
2023/11/24 10:42:20;;;;;;;5.95;3.35;;;5.50;99.90;;;;;;4992418;28;20108;-74
2023/11/24 10:44:54;;;;;;;7.15;3.63;;;5.60;99.80;;;;;;4989209;28;20037;-74
2023/11/24 10:47:26;;;;;;;10.52;4.13;;;5.70;99.90;;;;;;4989368;28;20044;-74
2023/11/24 10:50:07;;;;;;;9.70;4.97;;;5.70;99.90;;;;;;4989574;28;20037;-76
2023/11/24 10:52:41;;;;;;;44.10;22.95;;;5.70;99.90;;;;;;4989906;28;20033;-75
2023/11/24 10:55:10;;;;;;;16.25;8.40;;;5.90;99.90;;;;;;4990670;28;20034;-75
2023/11/24 10:57:36;;;;;;;10.43;6.28;;;5.90;99.90;;;;;;4990061;28;20664;-76
2023/11/24 11:00:03;;;;;;;12.07;5.03;;;6.00;99.80;;;;;;4989688;28;20117;-75
2023/11/24 11:02:29;;;;;;;6.40;3.38;;;6.10;99.90;;;;;;4989518;28;20037;-75
2023/11/24 11:05:23;;;;;;;7.68;2.97;;;6.20;98.90;;;;;;4990340;28;20045;-74
2023/11/24 11:07:54;;;;;;;4.97;2.45;;;6.30;99.20;;;;;;4991554;28;20540;-75
2023/11/24 11:10:28;;;;;;;7.32;3.40;;;6.50;99.40;;;;;;4991113;28;20653;-74
2023/11/24 11:12:55;;;;;;;9.27;4.93;;;6.80;99.50;;;;;;4989167;28;20361;-74
2023/11/24 11:15:25;;;;;;;13.27;6.65;;;7.10;99.00;;;;;;4989165;28;20284;-75
2023/11/24 11:18:07;;;;;;;8.20;3.60;;;7.10;98.00;;;;;;4989479;28;20042;-74
2023/11/24 11:20:37;;;;;;;22.00;10.10;;;7.00;98.00;;;;;;4989791;28;20045;-74
2023/11/24 11:23:04;;;;;;;53.35;30.65;;;7.10;98.50;;;;;;4988868;28;20038;-74
2023/11/24 11:25:35;;;;;;;61.70;33.50;;;7.50;98.20;;;;;;4989867;28;20057;-75
2023/11/24 11:28:20;;;;;;;22.88;11.65;;;7.70;98.40;;;;;;4989992;28;20042;-75
2023/11/24 11:30:50;;;;;;;21.33;11.30;;;7.60;98.00;;;;;;4990092;28;20100;-75
2023/11/24 11:33:20;;;;;;;12.30;8.68;;;7.50;97.80;;;;;;4989870;28;20594;-75
2023/11/24 11:35:47;;;;;;;22.92;15.10;;;7.60;98.10;;;;;;4988938;28;20912;-77
2023/11/24 11:38:15;;;;;;;13.50;9.80;;;7.90;98.30;;;;;;4990432;28;20033;-75
2023/11/24 11:40:44;;;;;;;10.90;8.32;;;8.00;97.80;;;;;;4988878;28;20088;-74
2023/11/24 11:43:15;;;;;;;8.10;4.70;;;8.00;97.30;;;;;;4989378;28;20045;-75
2023/11/24 11:45:47;;;;;;;7.95;3.10;;;7.90;97.00;;;;;;4988808;28;20038;-74
2023/11/24 11:48:13;;;;;;;6.10;4.47;;;8.00;97.10;;;;;;4990322;28;20125;-74
2023/11/24 11:50:56;;;;;;;5.65;3.30;;;8.20;97.30;;;;;;4988781;28;20033;-74
2023/11/24 11:53:25;;;;;;;5.45;2.97;;;8.20;96.90;;;;;;4989075;28;20447;-74
2023/11/24 11:55:55;;;;;;;4.63;2.90;;;8.20;97.10;;;;;;4990566;28;20030;-74
2023/11/24 11:58:25;;;;;;;7.35;3.20;;;8.40;97.20;;;;;;4992345;28;20046;-75
2023/11/24 12:00:51;;;;;;;5.18;2.40;;;8.30;96.40;;;;;;4991960;28;20678;-75
2023/11/24 12:03:20;;;;;;;6.88;3.35;;;8.50;97.10;;;;;;4992059;28;20049;-75
2023/11/24 12:05:51;;;;;;;7.78;2.97;;;8.60;97.20;;;;;;4992745;28;20440;-75
2023/11/24 12:08:21;;;;;;;8.75;3.55;;;8.60;97.20;;;;;;4993328;28;20038;-74
2023/11/24 12:10:47;;;;;;;5.45;2.90;;;8.60;97.20;;;;;;4993544;28;20041;-75
2023/11/24 12:13:13;;;;;;;7.55;3.90;;;8.60;96.90;;;;;;4991319;28;20583;-78
2023/11/24 12:15:39;;;;;;;5.15;3.00;;;8.30;96.60;;;;;;4991561;28;20030;-78
2023/11/24 12:18:06;;;;;;;6.35;2.40;;;8.40;97.00;;;;;;4992927;28;20038;-74
2023/11/24 12:20:34;;;;;;;6.53;2.83;;;8.50;96.60;;;;;;4992322;28;20056;-76
2023/11/24 12:23:04;;;;;;;6.43;3.13;;;8.60;96.40;;;;;;4992627;28;20451;-75
2023/11/24 12:25:30;;;;;;;7.47;3.10;;;8.70;97.10;;;;;;4993237;28;20429;-77
2023/11/24 12:28:04;;;;;;;6.90;3.78;;;8.70;96.70;;;;;;4992987;28;20065;-75
2023/11/24 12:30:40;;;;;;;6.45;3.65;;;8.70;96.80;;;;;;4992064;28;20029;-75
2023/11/24 12:33:05;;;;;;;7.43;3.70;;;8.70;96.80;;;;;;4992086;28;20113;-75
2023/11/24 12:35:31;;;;;;;5.55;3.35;;;8.80;96.40;;;;;;4992042;28;20026;-75
2023/11/24 12:37:57;;;;;;;6.57;3.17;;;8.60;96.60;;;;;;4992574;28;20050;-76
2023/11/24 12:40:27;;;;;;;8.10;3.90;;;8.50;96.70;;;;;;4992019;28;20033;-76
2023/11/24 12:42:59;;;;;;;5.65;3.38;;;8.40;96.90;;;;;;4991588;28;20096;-76
2023/11/24 12:45:25;;;;;;;6.60;3.35;;;8.50;96.90;;;;;;4992903;28;20446;-76
2023/11/24 12:47:51;;;;;;;7.63;3.92;;;8.50;96.90;;;;;;4991622;28;20038;-75
2023/11/24 12:50:17;;;;;;;7.85;3.88;;;8.60;96.80;;;;;;4991274;28;20535;-74
2023/11/24 12:52:44;;;;;;;6.45;3.30;;;8.70;96.80;;;;;;4992278;28;20041;-79
2023/11/24 12:55:10;;;;;;;5.72;3.08;;;8.60;96.90;;;;;;4991791;28;20077;-75